Time;durP1;ratioP1;P1;durP2;ratioP2;P2;SDS_P1;SDS_P2;PMS_P1;PMS_P2;Temp;Humidity;BMP_temperature;BMP_pressure;BME280_temperature;BME280_humidity;BME280_pressure;Samples;Min_cycle;Max_cycle;Signal;HPM_P1;HPM_P2
2024/01/06 00:01:21;;;;;;;9.10;2.80;;;;;;;9.15;32.53;100520.11;105597;1257;60565;-48
2024/01/06 00:03:48;;;;;;;13.40;4.00;;;;;;;9.21;32.43;100529.25;105595;1257;60615;-47
2024/01/06 00:06:16;;;;;;;9.50;4.00;;;;;;;9.25;32.49;100537.02;105555;1257;65016;-48
2024/01/06 00:08:44;;;;;;;13.50;4.80;;;;;;;9.24;32.42;100535.35;105621;1251;61375;-48
2024/01/06 00:11:12;;;;;;;13.30;6.10;;;;;;;9.21;32.28;100535.93;105552;1252;63743;-48
2024/01/06 00:13:39;;;;;;;14.90;5.60;;;;;;;9.17;32.36;100537.79;105532;1251;61261;-48
2024/01/06 00:16:07;;;;;;;14.20;6.20;;;;;;;9.10;32.43;100534.60;105507;1251;60559;-48
2024/01/06 00:18:35;;;;;;;12.30;5.90;;;;;;;9.05;32.41;100537.02;105608;1257;64891;-48
2024/01/06 00:21:03;;;;;;;14.90;4.40;;;;;;;9.04;32.51;100543.19;105783;1255;61333;-46
2024/01/06 00:23:30;;;;;;;14.20;4.50;;;;;;;9.01;32.45;100540.48;105574;1256;64290;-48
2024/01/06 00:25:58;;;;;;;11.00;5.20;;;;;;;8.96;32.56;100541.35;105557;1251;60521;-48
2024/01/06 00:28:26;;;;;;;9.60;5.40;;;;;;;8.92;32.59;100542.31;105497;1251;60418;-47
2024/01/06 00:30:53;;;;;;;10.80;4.60;;;;;;;8.90;32.75;100547.71;105540;1257;64865;-50
2024/01/06 00:33:21;;;;;;;11.20;4.40;;;;;;;8.91;32.78;100554.61;106014;1257;61445;-49
2024/01/06 00:35:49;;;;;;;9.60;3.10;;;;;;;8.90;32.79;100559.28;106134;1254;64216;-48
2024/01/06 00:38:16;;;;;;;8.00;3.40;;;;;;;8.87;32.86;100559.86;105398;1253;60569;-50
2024/01/06 00:40:44;;;;;;;10.70;4.80;;;;;;;8.88;32.99;100559.58;105453;1256;60517;-47
2024/01/06 00:43:11;;;;;;;7.40;2.30;;;;;;;8.89;33.08;100565.27;105211;1255;63681;-49
2024/01/06 00:45:39;;;;;;;7.10;2.70;;;;;;;8.91;33.00;100567.20;105356;1254;60478;-47
2024/01/06 00:48:07;;;;;;;8.00;2.80;;;;;;;8.89;32.91;100570.00;105170;1254;64136;-48
2024/01/06 00:50:35;;;;;;;9.00;2.40;;;;;;;8.90;32.99;100575.02;105404;1257;60558;-47
2024/01/06 00:53:03;;;;;;;7.90;2.80;;;;;;;8.94;32.99;100577.69;105658;1254;60505;-47
2024/01/06 00:55:30;;;;;;;6.00;2.50;;;;;;;8.99;32.92;100571.42;105605;1258;64935;-46
2024/01/06 00:57:58;;;;;;;8.70;2.80;;;;;;;9.03;32.91;100574.77;105336;1254;61357;-47
2024/01/06 01:00:27;;;;;;;10.30;2.60;;;;;;;9.06;32.90;100570.20;105443;1254;62534;-47
2024/01/06 01:02:54;;;;;;;7.00;2.50;;;;;;;9.08;32.96;100558.14;105425;1257;60433;-47
2024/01/06 01:05:22;;;;;;;6.20;2.80;;;;;;;9.13;33.00;100563.42;105973;1252;60574;-47
2024/01/06 01:07:50;;;;;;;7.50;2.60;;;;;;;9.16;33.07;100571.63;105422;1255;73864;-47
2024/01/06 01:10:17;;;;;;;11.00;3.70;;;;;;;9.18;33.08;100566.77;105403;1257;61319;-47
2024/01/06 01:12:45;;;;;;;7.60;2.70;;;;;;;9.19;33.11;100565.13;105461;1257;62468;-47
2024/01/06 01:15:13;;;;;;;6.80;2.20;;;;;;;9.20;33.10;100561.54;105446;1253;60561;-48
2024/01/06 01:17:41;;;;;;;6.20;2.00;;;;;;;9.22;33.21;100555.93;105484;1252;60318;-47
2024/01/06 01:20:09;;;;;;;3.90;1.30;;;;;;;9.31;33.13;100559.73;105569;1257;63782;-47
2024/01/06 01:22:37;;;;;;;5.40;2.20;;;;;;;9.45;33.01;100562.68;105447;1254;70102;-48
2024/01/06 01:25:07;;;;;;;2.80;1.00;;;;;;;9.54;33.13;100564.67;105374;1255;62491;-48
2024/01/06 01:27:35;;;;;;;5.10;1.70;;;;;;;9.70;33.04;100553.76;105522;1254;60459;-48
2024/01/06 01:30:03;;;;;;;4.60;2.30;;;;;;;9.83;32.93;100551.33;105351;1253;60661;-47
2024/01/06 01:32:31;;;;;;;4.80;1.10;;;;;;;9.98;32.92;100540.80;105735;1257;63837;-47
2024/01/06 01:34:58;;;;;;;5.20;1.90;;;;;;;10.08;32.72;100524.42;105848;1251;61418;-47
2024/01/06 01:37:26;;;;;;;6.60;2.20;;;;;;;10.12;32.57;100509.39;105467;1254;63713;-48
2024/01/06 01:39:54;;;;;;;7.00;1.80;;;;;;;10.15;32.62;100506.38;105492;1257;60613;-47
2024/01/06 01:42:21;;;;;;;4.60;1.40;;;;;;;10.20;32.51;100510.85;105567;1257;60604;-47
2024/01/06 01:44:49;;;;;;;4.70;1.60;;;;;;;10.23;32.30;100508.20;106259;1251;64979;-49
2024/01/06 01:47:18;;;;;;;5.90;1.60;;;;;;;10.19;32.20;100496.80;105589;1257;61324;-48
2024/01/06 01:49:46;;;;;;;3.50;1.00;;;;;;;10.16;32.10;100493.88;105594;1251;63655;-48
2024/01/06 01:52:15;;;;;;;5.20;1.90;;;;;;;10.09;31.92;100494.95;105582;1251;60636;-47
2024/01/06 01:54:42;;;;;;;6.30;1.60;;;;;;;10.07;31.98;100499.45;105356;1251;60562;-47
2024/01/06 01:57:10;;;;;;;6.30;0.80;;;;;;;10.08;31.86;100496.59;105549;1251;64882;-47
2024/01/06 01:59:38;;;;;;;3.40;1.00;;;;;;;10.04;31.87;100496.70;105706;1251;61972;-47
2024/01/06 02:02:06;;;;;;;3.50;0.90;;;;;;;10.01;31.76;100504.09;105643;1254;64466;-47
2024/01/06 02:04:33;;;;;;;2.20;0.80;;;;;;;10.01;31.75;100498.11;105688;1257;60661;-48
2024/01/06 02:07:01;;;;;;;2.40;0.50;;;;;;;9.96;31.72;100486.80;105541;1251;60494;-48
2024/01/06 02:09:29;;;;;;;3.60;0.80;;;;;;;9.90;31.62;100484.08;105594;1251;65623;-48
2024/01/06 02:11:57;;;;;;;5.90;1.20;;;;;;;9.87;31.63;100483.79;105911;1257;60222;-48
2024/01/06 02:14:25;;;;;;;3.30;0.70;;;;;;;9.86;31.66;100487.14;105933;1254;63737;-48
2024/01/06 02:16:53;;;;;;;5.20;1.30;;;;;;;9.92;31.80;100481.01;105545;1257;60482;-48
2024/01/06 02:19:20;;;;;;;3.00;0.70;;;;;;;9.96;31.75;100488.91;105560;1257;60552;-49
2024/01/06 02:21:52;;;;;;;3.70;1.20;;;;;;;10.00;31.73;100486.46;105605;1255;64839;-48
2024/01/06 02:24:20;;;;;;;5.20;0.60;;;;;;;10.04;31.64;100479.52;106139;1254;61560;-49
2024/01/06 02:26:47;;;;;;;3.60;1.20;;;;;;;10.04;31.58;100482.83;106194;1257;63745;-47
2024/01/06 02:29:15;;;;;;;3.10;1.00;;;;;;;10.05;31.61;100486.77;106191;1251;60469;-49
2024/01/06 02:31:43;;;;;;;3.60;1.10;;;;;;;10.10;31.54;100484.19;105551;1251;60487;-48
2024/01/06 02:34:10;;;;;;;3.30;1.00;;;;;;;10.08;31.52;100479.55;105519;1251;65011;-48
2024/01/06 02:36:38;;;;;;;4.90;1.60;;;;;;;10.08;31.49;100482.38;105722;1251;61396;-48
2024/01/06 02:39:06;;;;;;;3.60;1.20;;;;;;;10.06;31.60;100480.07;105502;1251;71632;-48
2024/01/06 02:41:34;;;;;;;4.40;1.20;;;;;;;10.11;31.73;100478.46;105704;1253;60440;-50
2024/01/06 02:44:03;;;;;;;4.90;0.90;;;;;;;10.16;31.64;100476.98;105854;1251;60565;-49
2024/01/06 02:46:30;;;;;;;4.50;1.60;;;;;;;10.19;31.48;100472.73;105811;1251;64837;-47
2024/01/06 02:48:58;;;;;;;3.00;1.10;;;;;;;10.19;31.50;100469.54;105535;1251;61392;-48
2024/01/06 02:51:26;;;;;;;4.00;1.20;;;;;;;10.21;31.42;100466.30;105503;1257;62560;-47
2024/01/06 02:53:53;;;;;;;3.90;1.00;;;;;;;10.21;31.41;100459.24;105509;1251;60594;-47
2024/01/06 02:56:21;;;;;;;3.70;1.20;;;;;;;10.20;31.31;100458.64;105461;1251;60575;-48
2024/01/06 02:58:49;;;;;;;4.90;1.30;;;;;;;10.16;31.21;100462.98;106288;1253;64960;-48
2024/01/06 03:01:17;;;;;;;7.00;1.90;;;;;;;10.12;31.26;100455.79;105494;1251;61453;-48
2024/01/06 03:03:45;;;;;;;4.40;1.30;;;;;;;10.10;31.18;100451.75;105524;1257;62569;-47
2024/01/06 03:06:12;;;;;;;3.10;1.20;;;;;;;10.09;31.21;100451.81;105544;1253;60533;-47
2024/01/06 03:08:40;;;;;;;3.20;0.90;;;;;;;10.08;31.14;100450.30;105575;1251;59260;-49
2024/01/06 03:11:08;;;;;;;5.80;0.80;;;;;;;10.09;31.30;100447.78;105482;1256;65003;-49
2024/01/06 03:13:35;;;;;;;3.70;1.10;;;;;;;10.09;31.10;100443.19;105584;1256;60467;-49
2024/01/06 03:16:05;;;;;;;4.90;1.10;;;;;;;10.10;31.13;100448.21;105477;1254;63698;-49
2024/01/06 03:18:32;;;;;;;4.10;1.20;;;;;;;10.15;31.06;100446.42;105800;1256;60646;-50
2024/01/06 03:21:00;;;;;;;2.80;0.80;;;;;;;10.15;31.11;100437.32;105520;1256;60443;-49
2024/01/06 03:23:28;;;;;;;5.00;1.10;;;;;;;10.13;31.10;100434.80;105493;1251;63703;-49
2024/01/06 03:25:55;;;;;;;4.40;1.20;;;;;;;10.14;30.96;100430.39;105440;1251;61509;-49
2024/01/06 03:28:23;;;;;;;4.00;1.10;;;;;;;10.14;31.03;100425.08;105529;1251;63691;-49
2024/01/06 03:30:50;;;;;;;3.50;0.90;;;;;;;10.16;30.83;100425.31;106884;1256;60397;-49
2024/01/06 03:33:18;;;;;;;5.00;1.50;;;;;;;10.14;30.90;100428.77;105578;1251;60531;-49
2024/01/06 03:35:46;;;;;;;4.40;1.40;;;;;;;10.15;30.78;100426.58;105532;1257;65013;-48
2024/01/06 03:38:14;;;;;;;4.20;1.50;;;;;;;10.17;30.81;100422.11;105537;1251;61492;-48
2024/01/06 03:40:41;;;;;;;5.40;1.70;;;;;;;10.18;30.91;100425.15;105520;1254;63672;-51
2024/01/06 03:43:09;;;;;;;5.10;1.30;;;;;;;10.21;30.89;100428.95;105702;1254;60552;-48
2024/01/06 03:45:36;;;;;;;7.50;2.40;;;;;;;10.24;30.81;100431.19;105614;1251;60601;-49
2024/01/06 03:48:05;;;;;;;5.00;2.30;;;;;;;10.26;30.77;100434.55;105715;1251;64929;-48
2024/01/06 03:50:33;;;;;;;3.30;1.00;;;;;;;10.25;30.81;100434.64;105765;1251;62154;-47
2024/01/06 03:53:00;;;;;;;3.40;1.00;;;;;;;10.26;30.95;100439.60;105555;1256;62440;-48
2024/01/06 03:55:28;;;;;;;5.00;1.40;;;;;;;10.32;30.95;100441.11;105534;1257;60613;-47
2024/01/06 03:57:55;;;;;;;2.70;1.00;;;;;;;10.35;31.00;100437.16;105510;1252;60543;-48
2024/01/06 04:00:25;;;;;;;3.80;0.80;;;;;;;10.39;31.04;100435.15;105436;1251;64841;-48
2024/01/06 04:02:52;;;;;;;3.80;1.00;;;;;;;10.43;31.06;100435.87;106023;1256;60457;-48
2024/01/06 04:05:20;;;;;;;4.60;0.90;;;;;;;10.46;30.94;100439.86;106084;1251;63682;-47
2024/01/06 04:07:48;;;;;;;5.00;1.50;;;;;;;10.49;31.04;100447.16;105522;1255;60597;-50
2024/01/06 04:10:15;;;;;;;5.10;1.30;;;;;;;10.49;30.93;100452.03;106232;1251;60540;-48
2024/01/06 04:12:43;;;;;;;3.10;0.70;;;;;;;10.47;30.77;100445.52;105456;1251;63603;-47
2024/01/06 04:15:10;;;;;;;3.40;2.20;;;;;;;10.47;30.82;100458.20;105556;1251;60463;-47
2024/01/06 04:17:38;;;;;;;3.00;0.90;;;;;;;10.47;30.96;100468.39;105501;1257;62549;-48
2024/01/06 04:20:07;;;;;;;3.90;1.20;;;;;;;10.46;30.89;100466.48;105513;1257;60540;-47
2024/01/06 04:22:35;;;;;;;5.50;0.90;;;;;;;10.49;30.83;100455.92;105736;1252;60425;-48
2024/01/06 04:25:03;;;;;;;5.10;1.50;;;;;;;10.49;30.94;100447.13;105507;1257;64916;-49
2024/01/06 04:27:31;;;;;;;3.00;0.80;;;;;;;10.49;30.96;100440.27;105513;1251;61525;-48
2024/01/06 04:29:58;;;;;;;3.30;1.10;;;;;;;10.45;30.96;100427.46;105492;1256;63792;-48
2024/01/06 04:32:26;;;;;;;4.60;1.30;;;;;;;10.44;31.07;100418.60;105477;1257;60443;-48
2024/01/06 04:34:54;;;;;;;4.00;1.50;;;;;;;10.45;31.11;100410.98;105521;1251;60414;-48
2024/01/06 04:37:21;;;;;;;5.10;1.40;;;;;;;10.46;31.03;100407.92;106015;1253;64884;-48
2024/01/06 04:39:49;;;;;;;3.50;1.00;;;;;;;10.46;31.01;100408.30;105506;1252;61526;-49
2024/01/06 04:42:19;;;;;;;2.80;1.10;;;;;;;10.47;31.04;100403.96;106324;1251;63773;-48
2024/01/06 04:44:47;;;;;;;4.60;1.00;;;;;;;10.49;31.07;100401.00;105854;1253;60595;-48
2024/01/06 04:47:14;;;;;;;5.20;1.30;;;;;;;10.49;31.12;100401.05;105507;1252;300163;-48
2024/01/06 05:02:28;;;;;;;5.80;1.10;;;;;;;9.27;33.48;100426.08;102792;1285;604406;-48
2024/01/06 05:04:55;;;;;;;4.80;1.80;;;;;;;11.23;30.52;100429.64;104266;1267;154857;-48
2024/01/06 05:07:23;;;;;;;5.80;1.60;;;;;;;11.22;30.44;100436.02;104486;1271;59512;-48
2024/01/06 05:09:50;;;;;;;4.20;1.30;;;;;;;11.22;30.44;100435.30;104417;1271;63282;-48
2024/01/06 05:12:18;;;;;;;5.60;1.60;;;;;;;11.22;30.38;100432.72;104479;1266;61451;-46
2024/01/06 05:14:46;;;;;;;4.90;2.10;;;;;;;11.19;30.36;100433.86;104461;1269;63685;-48
2024/01/06 05:17:13;;;;;;;5.10;1.00;;;;;;;11.13;30.30;100436.23;105225;1257;59355;-48
2024/01/06 05:19:41;;;;;;;3.10;1.10;;;;;;;11.04;30.37;100429.98;105257;1256;59594;-47
2024/01/06 05:22:08;;;;;;;4.50;1.20;;;;;;;10.95;30.50;100429.61;105336;1256;62304;-48
2024/01/06 05:24:36;;;;;;;4.80;1.30;;;;;;;10.91;30.52;100430.12;105105;1256;69996;-48
2024/01/06 05:27:04;;;;;;;3.20;1.00;;;;;;;10.89;30.64;100429.41;105451;1259;62719;-48
2024/01/06 05:29:32;;;;;;;4.20;1.40;;;;;;;10.86;30.58;100428.44;105246;1255;59751;-48
2024/01/06 05:31:59;;;;;;;4.20;1.50;;;;;;;10.82;30.71;100427.87;105203;1255;59727;-47
2024/01/06 05:34:27;;;;;;;4.10;1.40;;;;;;;10.78;30.71;100433.06;105234;1259;64570;-47
2024/01/06 05:36:55;;;;;;;5.90;2.30;;;;;;;10.75;30.69;100435.83;105215;1260;61804;-48
2024/01/06 05:39:22;;;;;;;3.80;1.30;;;;;;;10.71;30.75;100430.89;105167;1255;62473;-47
2024/01/06 05:41:50;;;;;;;6.30;1.70;;;;;;;10.69;30.80;100424.70;105738;1254;59771;-48
2024/01/06 05:44:17;;;;;;;5.10;1.20;;;;;;;10.66;30.98;100422.52;105290;1259;59762;-47
2024/01/06 05:46:45;;;;;;;4.90;1.40;;;;;;;10.63;31.02;100420.80;105208;1259;64056;-47
2024/01/06 05:49:13;;;;;;;5.20;2.20;;;;;;;10.63;31.08;100416.45;105307;1259;60975;-47
2024/01/06 05:51:45;;;;;;;4.20;1.40;;;;;;;10.60;31.16;100407.14;105438;1256;63678;-48
2024/01/06 05:54:13;;;;;;;3.80;1.40;;;;;;;10.59;31.17;100397.91;105284;1260;59687;-51
2024/01/06 05:56:40;;;;;;;4.10;1.70;;;;;;;10.57;31.18;100392.98;105386;1256;59817;-48
2024/01/06 05:59:08;;;;;;;5.00;1.30;;;;;;;10.56;31.08;100389.94;105298;1259;64119;-48
2024/01/06 06:01:35;;;;;;;5.50;1.60;;;;;;;10.52;31.11;100395.21;105352;1260;62445;-49
2024/01/06 06:04:03;;;;;;;6.30;1.40;;;;;;;10.46;31.24;100397.03;105547;1257;63713;-48
2024/01/06 06:06:31;;;;;;;6.10;1.80;;;;;;;10.45;31.29;100389.45;105193;1257;59750;-49
2024/01/06 06:08:58;;;;;;;3.60;1.10;;;;;;;10.45;31.38;100385.23;105194;1255;59772;-48
2024/01/06 06:11:27;;;;;;;4.40;1.40;;;;;;;10.45;31.38;100391.72;105291;1260;64253;-48
2024/01/06 06:13:54;;;;;;;6.00;1.70;;;;;;;10.48;31.46;100398.68;105258;1256;61402;-48
2024/01/06 06:16:22;;;;;;;5.00;1.50;;;;;;;10.48;31.47;100397.73;105284;1254;64130;-48
2024/01/06 06:18:49;;;;;;;5.00;1.70;;;;;;;10.50;31.46;100389.90;105237;1256;59634;-48
2024/01/06 06:21:17;;;;;;;3.50;0.70;;;;;;;10.53;31.48;100388.94;105195;1259;59663;-49
2024/01/06 06:23:45;;;;;;;4.90;1.30;;;;;;;10.65;31.39;100380.11;105285;1260;62936;-47
2024/01/06 06:26:12;;;;;;;4.00;1.20;;;;;;;10.76;31.46;100371.68;105255;1256;61419;-48
2024/01/06 06:28:40;;;;;;;5.50;1.70;;;;;;;10.89;31.44;100367.11;105337;1256;73047;-50
2024/01/06 06:31:08;;;;;;;5.20;1.50;;;;;;;11.02;31.35;100361.66;105247;1254;60281;-49
2024/01/06 06:33:36;;;;;;;4.40;1.40;;;;;;;11.14;31.33;100357.92;105193;1257;60057;-49
2024/01/06 06:36:04;;;;;;;5.80;1.60;;;;;;;11.18;31.18;100355.08;105210;1257;64175;-48
2024/01/06 06:38:31;;;;;;;3.90;1.20;;;;;;;11.19;31.12;100345.17;105447;1256;61309;-49
2024/01/06 06:40:59;;;;;;;8.20;2.00;;;;;;;11.21;31.07;100338.20;105243;1256;63788;-49
2024/01/06 06:43:27;;;;;;;3.50;1.20;;;;;;;11.18;31.04;100331.39;105203;1257;59837;-49
2024/01/06 06:45:57;;;;;;;5.10;1.20;;;;;;;11.16;31.08;100326.45;105681;1257;59667;-49
2024/01/06 06:48:25;;;;;;;5.30;1.50;;;;;;;11.12;31.09;100323.48;105292;1256;65676;-48
2024/01/06 06:50:52;;;;;;;7.80;1.80;;;;;;;11.10;31.07;100321.85;105220;1260;60096;-47
2024/01/06 06:53:20;;;;;;;6.00;2.30;;;;;;;11.04;31.14;100313.02;105190;1260;63722;-50
2024/01/06 06:55:47;;;;;;;5.90;1.80;;;;;;;11.00;31.28;100304.98;105843;1259;60396;-49
2024/01/06 06:58:15;;;;;;;4.60;1.90;;;;;;;10.98;31.31;100307.38;105235;1259;59526;-47
2024/01/06 07:00:43;;;;;;;5.40;1.50;;;;;;;10.99;31.31;100312.43;106797;1257;64120;-48
2024/01/06 07:03:10;;;;;;;5.40;1.40;;;;;;;11.00;31.36;100308.48;105263;1259;60090;-47
2024/01/06 07:05:39;;;;;;;5.00;1.40;;;;;;;11.00;31.29;100299.20;105394;1260;62610;-47
2024/01/06 07:08:06;;;;;;;4.80;1.70;;;;;;;11.00;31.36;100290.80;105384;1258;59786;-47
2024/01/06 07:10:34;;;;;;;6.00;1.90;;;;;;;11.00;31.39;100286.70;105259;1254;59762;-49
2024/01/06 07:13:02;;;;;;;4.30;1.50;;;;;;;11.00;31.36;100295.15;105264;1257;64216;-50
2024/01/06 07:15:29;;;;;;;6.00;2.00;;;;;;;11.02;31.34;100304.49;105519;1257;61394;-49
2024/01/06 07:17:57;;;;;;;4.00;1.50;;;;;;;11.05;31.45;100313.53;105228;1260;64249;-50
2024/01/06 07:20:25;;;;;;;5.90;1.90;;;;;;;11.06;31.43;100313.95;105302;1256;59714;-50
2024/01/06 07:22:52;;;;;;;4.30;1.80;;;;;;;11.07;31.35;100312.83;105807;1260;59619;-51
2024/01/06 07:25:20;;;;;;;6.00;2.10;;;;;;;11.09;31.30;100319.33;105205;1261;64654;-50
2024/01/06 07:27:48;;;;;;;7.30;2.10;;;;;;;11.12;31.34;100321.35;105218;1263;60376;-50
2024/01/06 07:30:19;;;;;;;4.70;2.30;;;;;;;11.16;31.35;100323.64;105779;1262;63772;-52
2024/01/06 07:32:49;;;;;;;6.00;2.00;;;;;;;11.20;31.30;100326.52;105813;1258;60082;-50
2024/01/06 07:35:17;;;;;;;4.70;1.40;;;;;;;11.23;31.22;100335.39;105931;1260;59731;-50
2024/01/06 07:37:45;;;;;;;5.50;2.10;;;;;;;11.26;31.28;100341.09;105180;1257;63125;-50
2024/01/06 07:40:16;;;;;;;7.20;2.60;;;;;;;11.32;31.33;100341.94;105326;1257;61405;-51
2024/01/06 07:42:44;;;;;;;5.70;2.50;;;;;;;11.36;31.27;100337.08;105356;1259;63662;-51
2024/01/06 07:45:13;;;;;;;5.90;1.70;;;;;;;11.41;31.28;100336.84;105280;1257;59627;-50
2024/01/06 07:47:41;;;;;;;5.00;1.30;;;;;;;11.42;31.21;100331.33;105314;1259;59858;-49
2024/01/06 07:50:09;;;;;;;7.10;2.10;;;;;;;11.46;31.18;100328.32;105328;1262;64226;-49
2024/01/06 07:52:37;;;;;;;5.30;2.10;;;;;;;11.52;31.35;100324.11;105307;1257;61374;-49
2024/01/06 07:55:04;;;;;;;6.40;2.70;;;;;;;11.59;31.20;100324.30;105272;1255;63668;-49
2024/01/06 07:57:32;;;;;;;6.20;1.70;;;;;;;11.64;31.19;100330.53;105433;1260;59697;-49
2024/01/06 08:00:00;;;;;;;5.80;1.90;;;;;;;11.70;31.20;100332.29;105274;1257;61580;-49
2024/01/06 08:02:38;;;;;;;7.10;2.90;;;;;;;11.76;31.07;100332.98;105333;1259;64150;-49
2024/01/06 08:05:06;;;;;;;7.30;2.70;;;;;;;11.78;31.05;100334.48;105275;1259;61436;-49
2024/01/06 08:07:34;;;;;;;8.10;2.40;;;;;;;11.80;31.15;100340.06;105237;1257;63749;-49
2024/01/06 08:10:04;;;;;;;5.50;2.20;;;;;;;11.81;31.13;100341.69;105245;1263;59625;-49
2024/01/06 08:12:32;;;;;;;5.80;2.30;;;;;;;11.85;31.13;100335.37;105556;1260;59697;-49
2024/01/06 08:15:00;;;;;;;10.40;2.60;;;;;;;11.88;31.10;100327.73;105302;1257;64113;-49
2024/01/06 08:17:28;;;;;;;6.70;2.20;;;;;;;11.91;30.97;100329.27;105276;1259;60126;-49
2024/01/06 08:19:55;;;;;;;6.00;2.00;;;;;;;11.93;31.04;100323.35;105234;1262;73350;-50
2024/01/06 08:22:23;;;;;;;5.00;2.00;;;;;;;11.91;30.94;100314.31;105771;1259;59762;-49
2024/01/06 08:24:51;;;;;;;7.20;2.70;;;;;;;11.91;31.02;100300.30;105253;1263;59605;-49
2024/01/06 08:27:19;;;;;;;6.00;2.30;;;;;;;11.91;31.10;100303.27;105835;1257;64582;-49
2024/01/06 08:29:47;;;;;;;6.20;1.90;;;;;;;11.93;31.13;100301.66;106562;1254;61302;-50
2024/01/06 08:32:14;;;;;;;5.10;1.70;;;;;;;12.02;31.12;100294.61;105938;1257;63751;-50
2024/01/06 08:34:42;;;;;;;6.00;1.40;;;;;;;12.12;30.99;100291.30;105860;1259;59909;-50
2024/01/06 08:37:10;;;;;;;6.40;1.80;;;;;;;12.23;31.02;100286.97;105883;1260;59753;-50
2024/01/06 08:39:38;;;;;;;10.20;2.40;;;;;;;12.35;30.82;100284.08;105243;1258;64193;-49
2024/01/06 08:42:05;;;;;;;6.60;2.30;;;;;;;12.47;30.68;100285.86;105331;1258;61328;-50
2024/01/06 08:44:33;;;;;;;5.40;1.90;;;;;;;12.54;30.61;100283.63;105284;1257;63749;-47
2024/01/06 08:47:01;;;;;;;5.40;1.40;;;;;;;12.60;30.64;100289.96;105247;1263;59763;-48
2024/01/06 08:49:28;;;;;;;6.20;2.30;;;;;;;12.62;30.50;100285.77;105672;1256;59765;-47
2024/01/06 08:51:57;;;;;;;5.00;2.20;;;;;;;12.61;30.42;100277.56;105201;1262;64573;-48
2024/01/06 08:54:25;;;;;;;6.70;2.60;;;;;;;12.59;30.31;100277.41;106490;1260;62034;-48
2024/01/06 08:56:52;;;;;;;6.00;2.00;;;;;;;12.57;30.27;100280.01;105221;1260;63754;-48
2024/01/06 08:59:20;;;;;;;7.70;3.10;;;;;;;12.56;30.31;100281.21;105234;1260;59664;-48
2024/01/06 09:01:47;;;;;;;6.40;2.70;;;;;;;12.55;30.41;100281.15;105218;1259;59876;-49
2024/01/06 09:04:17;;;;;;;6.40;2.00;;;;;;;12.56;30.56;100287.05;105900;1259;64052;-48
2024/01/06 09:06:46;;;;;;;7.50;2.10;;;;;;;12.55;30.56;100301.35;105295;1260;61537;-48
2024/01/06 09:09:14;;;;;;;5.80;2.10;;;;;;;12.57;30.55;100303.81;105894;1257;63691;-49
2024/01/06 09:11:43;;;;;;;10.90;2.30;;;;;;;12.58;30.50;100302.48;105349;1257;60598;-48
2024/01/06 09:14:11;;;;;;;8.80;2.20;;;;;;;12.58;30.44;100297.55;105357;1256;60097;-48
2024/01/06 09:16:39;;;;;;;7.60;2.80;;;;;;;12.57;30.46;100287.59;105297;1258;63693;-47
2024/01/06 09:19:07;;;;;;;7.50;3.50;;;;;;;12.57;30.46;100289.56;105210;1260;60983;-50
2024/01/06 09:21:35;;;;;;;5.40;1.70;;;;;;;12.58;30.40;100305.81;105228;1262;62508;-49
2024/01/06 09:24:06;;;;;;;8.50;3.10;;;;;;;12.54;30.39;100303.52;105433;1260;60568;-48
2024/01/06 09:26:34;;;;;;;8.70;2.90;;;;;;;12.52;30.52;100298.59;105422;1260;61149;-48
2024/01/06 09:29:02;;;;;;;6.00;2.30;;;;;;;12.55;30.59;100299.73;105397;1260;65000;-48
2024/01/06 09:31:30;;;;;;;9.30;3.40;;;;;;;12.58;30.62;100302.65;105603;1260;61957;-49
2024/01/06 09:34:04;;;;;;;6.40;2.40;;;;;;;12.59;30.72;100296.95;105700;1260;64141;-48
2024/01/06 09:36:32;;;;;;;9.80;3.10;;;;;;;12.61;30.76;100291.80;105483;1257;60562;-49
2024/01/06 09:38:59;;;;;;;8.30;3.30;;;;;;;12.64;30.85;100294.88;105472;1269;60412;-50
2024/01/06 09:41:27;;;;;;;10.10;3.70;;;;;;;12.71;30.81;100297.29;105225;1259;64954;-49
2024/01/06 09:43:54;;;;;;;8.40;3.00;;;;;;;12.75;30.82;100294.25;105239;1256;61620;-52
2024/01/06 09:46:27;;;;;;;8.10;2.50;;;;;;;12.79;30.85;100290.58;105711;1259;63851;-48
2024/01/06 09:48:55;;;;;;;13.40;3.90;;;;;;;12.80;30.88;100287.48;105243;1260;60469;-48
2024/01/06 09:51:23;;;;;;;6.80;3.20;;;;;;;12.84;30.81;100277.65;105600;1260;60450;-48
2024/01/06 09:53:59;;;;;;;9.60;3.70;;;;;;;12.89;30.82;100270.45;105706;1260;64902;-48
2024/01/06 09:56:27;;;;;;;9.70;3.30;;;;;;;12.90;30.77;100264.74;105634;1261;61451;-48
2024/01/06 09:58:55;;;;;;;7.80;2.80;;;;;;;12.91;30.87;100260.08;109026;1258;63704;-48
2024/01/06 10:01:23;;;;;;;9.60;3.50;;;;;;;12.95;30.88;100249.98;109021;1257;58431;-49
2024/01/06 10:03:51;;;;;;;8.40;3.80;;;;;;;12.96;30.83;100231.46;105698;1256;60796;-48
2024/01/06 10:06:20;;;;;;;6.90;2.60;;;;;;;12.91;30.87;100220.30;105241;1258;64928;-48
2024/01/06 10:08:50;;;;;;;7.70;2.90;;;;;;;12.85;30.97;100216.05;105836;1256;60463;-48
2024/01/06 10:11:24;;;;;;;7.10;2.60;;;;;;;12.83;31.01;100219.08;105823;1261;63722;-49
2024/01/06 10:13:52;;;;;;;6.20;2.40;;;;;;;12.83;31.07;100231.23;105736;1257;60529;-49
2024/01/06 10:16:20;;;;;;;7.60;2.80;;;;;;;12.83;31.18;100239.68;105245;1268;60371;-49
2024/01/06 10:18:47;;;;;;;8.20;2.50;;;;;;;12.83;31.15;100238.98;105841;1260;65388;-49
2024/01/06 10:21:21;;;;;;;8.40;3.50;;;;;;;12.84;31.20;100225.52;105740;1262;61669;-50
2024/01/06 10:23:50;;;;;;;5.70;3.10;;;;;;;12.84;31.37;100221.11;105749;1258;64369;-48
2024/01/06 10:26:18;;;;;;;8.90;3.80;;;;;;;12.87;31.46;100211.67;105719;1262;60559;-49
2024/01/06 10:28:49;;;;;;;7.50;2.50;;;;;;;12.88;31.53;100204.34;105747;1263;60563;-47
2024/01/06 10:31:16;;;;;;;6.20;2.00;;;;;;;12.90;31.67;100197.54;105833;1256;63793;-48
2024/01/06 10:33:44;;;;;;;6.40;2.00;;;;;;;12.95;31.65;100188.07;105115;1263;62131;-49
2024/01/06 10:36:12;;;;;;;7.50;2.50;;;;;;;13.05;31.69;100193.63;105364;1260;66369;-48
2024/01/06 10:38:40;;;;;;;6.80;2.40;;;;;;;13.15;31.84;100198.52;105167;1260;60447;-49
2024/01/06 10:41:09;;;;;;;7.10;2.10;;;;;;;13.27;31.78;100191.42;105268;1260;60620;-48
2024/01/06 10:43:40;;;;;;;7.50;2.80;;;;;;;13.38;31.84;100183.66;105297;1263;64930;-49
2024/01/06 10:46:11;;;;;;;5.70;2.00;;;;;;;13.48;31.68;100174.30;105373;1258;61853;-49
2024/01/06 10:48:42;;;;;;;6.30;2.50;;;;;;;13.54;31.74;100164.89;105209;1257;71706;-48
2024/01/06 10:51:12;;;;;;;6.30;2.70;;;;;;;13.61;31.71;100176.43;105081;1262;60569;-52
2024/01/06 10:53:40;;;;;;;8.00;3.10;;;;;;;13.62;31.61;100180.68;105303;1269;60434;-49
2024/01/06 10:56:10;;;;;;;7.00;2.20;;;;;;;13.61;31.52;100171.81;105387;1258;63717;-50
2024/01/06 10:58:42;;;;;;;7.30;2.60;;;;;;;13.59;31.45;100165.13;105268;1260;61439;-50
2024/01/06 11:01:10;;;;;;;8.80;2.70;;;;;;;13.56;31.60;100162.27;105261;1261;63867;-50
2024/01/06 11:03:39;;;;;;;6.00;2.30;;;;;;;13.54;31.64;100154.29;105005;1263;60568;-50
2024/01/06 11:06:11;;;;;;;8.00;2.90;;;;;;;13.55;31.69;100144.71;105336;1263;60414;-49
2024/01/06 11:08:49;;;;;;;8.00;2.40;;;;;;;13.57;31.69;100140.11;105196;1264;65020;-51
2024/01/06 11:11:18;;;;;;;7.20;2.20;;;;;;;13.60;31.62;100134.20;105884;1259;61420;-50
2024/01/06 11:13:47;;;;;;;6.20;2.40;;;;;;;13.60;31.54;100131.94;105772;1259;64076;-50
2024/01/06 11:16:35;;;;;;;7.50;2.50;;;;;;;13.59;31.61;100132.02;105891;1260;60454;-47
2024/01/06 11:19:03;;;;;;;7.00;3.00;;;;;;;13.58;31.59;100128.27;105423;1260;60376;-48
2024/01/06 11:21:34;;;;;;;7.80;3.00;;;;;;;13.55;31.55;100128.13;105399;1260;64870;-47
2024/01/06 11:24:20;;;;;;;40.70;5.20;;;;;;;13.54;31.67;100126.95;105248;1257;61791;-48
2024/01/06 11:26:52;;;;;;;7.40;3.60;;;;;;;13.57;31.79;100124.78;105715;1263;62540;-48
2024/01/06 11:29:20;;;;;;;8.10;2.70;;;;;;;13.55;31.73;100126.73;105876;1260;61782;-49
2024/01/06 11:32:25;;;;;;;7.90;2.50;;;;;;;13.52;31.74;100129.15;105882;1258;60697;-49
2024/01/06 11:34:56;;;;;;;7.30;3.10;;;;;;;13.50;31.90;100125.52;105695;1260;64905;-48